Time;durP1;ratioP1;P1;durP2;ratioP2;P2;SDS_P1;SDS_P2;PMS_P1;PMS_P2;Temp;Humidity;BMP_temperature;BMP_pressure;BME280_temperature;BME280_humidity;BME280_pressure;Samples;Min_cycle;Max_cycle;Signal;HPM_P1;HPM_P2
2022/06/20 00:01:43;;;;;;;5.20;1.88;;;14.10;99.90;;;;;;5075211;28;20434;-64
2022/06/20 00:04:18;;;;;;;5.18;1.85;;;14.00;99.90;;;;;;5072443;28;20032;-64
2022/06/20 00:06:44;;;;;;;5.63;1.70;;;14.00;99.90;;;;;;5076546;28;20117;-64
2022/06/20 00:09:11;;;;;;;3.15;1.27;;;14.00;99.90;;;;;;5078495;28;20032;-64
2022/06/20 00:11:46;;;;;;;3.47;1.63;;;14.10;99.90;;;;;;5074257;28;20164;-64
2022/06/20 00:14:21;;;;;;;2.08;1.42;;;14.00;99.90;;;;;;5072376;28;20029;-64
2022/06/20 00:16:47;;;;;;;5.68;1.25;;;14.00;99.90;;;;;;5072549;28;20055;-64
2022/06/20 00:19:13;;;;;;;3.33;1.35;;;13.90;99.90;;;;;;5072103;28;20040;-64
2022/06/20 00:21:40;;;;;;;5.88;1.52;;;13.90;99.90;;;;;;5074912;28;20415;-63
2022/06/20 00:24:06;;;;;;;9.02;1.48;;;13.90;99.90;;;;;;5081555;28;20155;-64
2022/06/20 00:26:34;;;;;;;3.60;1.48;;;13.90;99.90;;;;;;5078493;28;20055;-64
2022/06/20 00:29:05;;;;;;;4.80;1.38;;;13.90;99.90;;;;;;5078650;28;20069;-64
2022/06/20 00:31:30;;;;;;;5.55;1.63;;;13.80;99.90;;;;;;5075324;28;20059;-63
2022/06/20 00:33:56;;;;;;;4.07;1.70;;;13.80;99.90;;;;;;5076390;28;20032;-64
2022/06/20 00:36:22;;;;;;;6.95;1.77;;;13.70;99.90;;;;;;5069935;28;20068;-64
2022/06/20 00:38:52;;;;;;;5.10;1.75;;;13.70;99.90;;;;;;5077069;28;20041;-64
2022/06/20 00:41:23;;;;;;;5.20;1.23;;;13.70;99.90;;;;;;5075145;28;20174;-64
2022/06/20 00:43:52;;;;;;;4.78;1.33;;;13.70;99.90;;;;;;5075523;28;20060;-63
2022/06/20 00:46:30;;;;;;;4.97;1.17;;;13.70;99.90;;;;;;5077235;28;20413;-64
2022/06/20 00:49:12;;;;;;;4.35;1.27;;;13.70;99.90;;;;;;5078360;28;20059;-64
2022/06/20 00:51:49;;;;;;;4.38;1.10;;;13.70;99.90;;;;;;5077674;28;20045;-63
2022/06/20 00:54:27;;;;;;;8.05;1.80;;;13.60;99.90;;;;;;5076193;28;20075;-63
2022/06/20 00:57:05;;;;;;;6.18;1.33;;;13.60;99.90;;;;;;5073709;28;21311;-64
2022/06/20 00:59:34;;;;;;;4.07;1.15;;;13.50;99.90;;;;;;5074070;28;20742;-64
2022/06/20 01:02:01;;;;;;;3.70;0.98;;;13.50;99.90;;;;;;5079026;28;20044;-63
2022/06/20 01:04:36;;;;;;;3.10;1.00;;;13.50;99.90;;;;;;5071438;28;20094;-64
2022/06/20 01:07:07;;;;;;;3.28;1.38;;;13.50;99.90;;;;;;5073853;28;20522;-64
2022/06/20 01:09:37;;;;;;;9.00;2.45;;;13.40;99.90;;;;;;5073877;28;20047;-64
2022/06/20 01:12:03;;;;;;;6.68;1.08;;;13.40;99.90;;;;;;5074709;28;20040;-64
2022/06/20 01:14:38;;;;;;;4.10;1.20;;;13.30;99.90;;;;;;5079476;28;20040;-64
2022/06/20 01:17:13;;;;;;;4.43;1.13;;;13.30;99.90;;;;;;5072533;28;20044;-63
2022/06/20 01:19:45;;;;;;;3.03;1.20;;;13.30;99.90;;;;;;5078732;28;20052;-64
2022/06/20 01:22:40;;;;;;;5.82;2.08;;;13.20;99.90;;;;;;5077667;28;20158;-64
2022/06/20 01:25:27;;;;;;;3.33;1.15;;;13.20;99.90;;;;;;5072893;28;20102;-63
2022/06/20 01:27:53;;;;;;;2.80;1.55;;;13.10;99.90;;;;;;5072080;28;20105;-64
2022/06/20 01:30:26;;;;;;;4.93;1.13;;;13.10;99.90;;;;;;5077031;28;20048;-63
2022/06/20 01:32:51;;;;;;;;;;;13.00;99.90;;;;;;5074064;28;20053;-64
2022/06/20 01:37:23;;;;;;;2.97;1.10;;;12.90;99.90;;;;;;5075965;28;19949;-64
2022/06/20 01:38:07;;;;;;;14.52;3.17;;;12.90;99.90;;;;;;5076883;28;20098;-64
2022/06/20 01:40:34;;;;;;;4.25;1.48;;;12.80;99.90;;;;;;5074419;28;20048;-64
2022/06/20 01:43:00;;;;;;;3.22;1.20;;;12.70;99.90;;;;;;5076830;28;20032;-64
2022/06/20 01:48:14;;;;;;;1.50;1.20;;;12.70;99.90;;;;;;5076710;28;20044;-64
2022/06/20 01:50:42;;;;;;;4.50;1.30;;;12.70;99.90;;;;;;5073747;28;20055;-63
2022/06/20 01:53:11;;;;;;;5.07;1.35;;;12.70;99.90;;;;;;5072820;28;20495;-64
2022/06/20 01:55:39;;;;;;;3.55;1.20;;;12.70;99.90;;;;;;5073597;28;20158;-64
2022/06/20 01:58:11;;;;;;;6.10;1.45;;;12.70;99.90;;;;;;5075363;28;20115;-63
2022/06/20 02:00:38;;;;;;;2.33;1.00;;;12.80;99.90;;;;;;5078182;28;20632;-64
2022/06/20 02:03:19;;;;;;;4.30;1.55;;;12.80;99.90;;;;;;5075869;28;20123;-64
2022/06/20 02:05:48;;;;;;;6.63;1.35;;;12.80;99.90;;;;;;5073294;28;20088;-64
2022/06/20 02:08:18;;;;;;;3.00;1.88;;;12.80;99.90;;;;;;5076574;28;20411;-64
2022/06/20 02:11:11;;;;;;;4.45;1.23;;;12.80;99.90;;;;;;5074201;28;20055;-64
2022/06/20 02:13:44;;;;;;;4.85;1.27;;;12.90;99.90;;;;;;5076517;28;20112;-63
2022/06/20 02:16:14;;;;;;;5.25;1.50;;;12.90;99.90;;;;;;5073018;28;20123;-63
2022/06/20 02:18:44;;;;;;;8.70;1.48;;;12.80;99.90;;;;;;5066650;28;20102;-64
2022/06/20 02:21:19;;;;;;;12.23;2.30;;;12.80;99.90;;;;;;5071139;28;20040;-63
2022/06/20 02:23:49;;;;;;;3.97;1.65;;;12.80;99.90;;;;;;5068580;28;20048;-64
2022/06/20 02:26:16;;;;;;;3.45;1.10;;;12.80;99.90;;;;;;5078616;28;20075;-63
2022/06/20 02:29:22;;;;;;;7.70;2.10;;;12.70;99.90;;;;;;5077047;28;20097;-64
2022/06/20 02:32:14;;;;;;;2.35;0.95;;;12.70;99.90;;;;;;5073326;28;20060;-64
2022/06/20 02:34:40;;;;;;;5.65;1.58;;;12.70;99.90;;;;;;5069268;28;20048;-64
2022/06/20 02:37:10;;;;;;;3.33;1.13;;;12.60;99.90;;;;;;5074729;28;20395;-64
2022/06/20 02:39:38;;;;;;;3.10;1.17;;;12.50;99.90;;;;;;5078342;28;20044;-64
2022/06/20 02:42:09;;;;;;;7.13;2.45;;;12.50;99.90;;;;;;5070864;28;20032;-64
2022/06/20 02:44:35;;;;;;;4.40;1.30;;;12.40;99.90;;;;;;5078198;28;20504;-64
2022/06/20 02:47:06;;;;;;;6.15;1.35;;;12.40;99.90;;;;;;5073811;28;20047;-64
2022/06/20 02:49:33;;;;;;;5.43;1.75;;;12.40;99.90;;;;;;5073043;28;20071;-63
2022/06/20 02:52:01;;;;;;;4.90;2.13;;;12.30;99.90;;;;;;5074137;28;20693;-64
2022/06/20 02:54:31;;;;;;;5.18;1.63;;;12.20;99.90;;;;;;5074441;28;20032;-64
2022/06/20 02:57:26;;;;;;;2.92;1.73;;;12.20;99.90;;;;;;5071963;28;20060;-64
2022/06/20 02:59:54;;;;;;;3.80;1.33;;;12.10;99.90;;;;;;5069355;28;20450;-64
2022/06/20 03:02:25;;;;;;;4.93;1.67;;;12.00;99.90;;;;;;5070622;28;20518;-63
2022/06/20 03:04:51;;;;;;;6.82;1.65;;;12.00;99.90;;;;;;5071767;28;20044;-64
2022/06/20 03:07:26;;;;;;;3.33;1.30;;;12.00;99.90;;;;;;5071502;28;20045;-63
2022/06/20 03:10:16;;;;;;;6.38;1.50;;;12.00;99.90;;;;;;5072582;28;20084;-64
2022/06/20 03:12:42;;;;;;;4.97;1.42;;;11.90;99.90;;;;;;5074465;28;20395;-63
2022/06/20 03:15:08;;;;;;;4.60;1.58;;;11.70;99.90;;;;;;5074556;28;20077;-63
2022/06/20 03:17:34;;;;;;;5.20;1.80;;;11.60;99.90;;;;;;5075207;28;20114;-63
2022/06/20 03:20:04;;;;;;;3.78;1.50;;;11.60;99.90;;;;;;5072613;28;20482;-64
2022/06/20 03:22:35;;;;;;;7.43;1.75;;;11.50;99.90;;;;;;5074736;28;20493;-63
2022/06/20 03:25:02;;;;;;;3.03;1.98;;;11.50;99.90;;;;;;5071787;28;20131;-63
2022/06/20 03:27:31;;;;;;;3.25;1.95;;;11.40;99.90;;;;;;5073436;28;20119;-63
2022/06/20 03:30:01;;;;;;;5.15;1.88;;;11.40;99.90;;;;;;5069162;28;20056;-64
2022/06/20 03:32:27;;;;;;;2.80;1.77;;;11.40;99.90;;;;;;5075462;28;20040;-63
2022/06/20 03:34:54;;;;;;;5.53;2.20;;;11.40;99.90;;;;;;5072254;28;20048;-63
2022/06/20 03:37:20;;;;;;;6.63;2.15;;;11.40;99.90;;;;;;5071722;28;20036;-64
2022/06/20 03:39:48;;;;;;;5.63;1.77;;;11.40;99.90;;;;;;5069824;28;20566;-64
2022/06/20 03:42:15;;;;;;;5.07;1.95;;;11.40;99.90;;;;;;5073209;28;20070;-63
2022/06/20 03:44:49;;;;;;;2.95;1.88;;;11.40;99.90;;;;;;5069765;28;20076;-64
2022/06/20 03:47:21;;;;;;;3.85;1.75;;;11.60;99.90;;;;;;5073130;28;20123;-63
2022/06/20 03:49:58;;;;;;;2.53;1.88;;;11.40;99.90;;;;;;5073118;28;20044;-64
2022/06/20 03:52:30;;;;;;;8.07;2.55;;;11.30;99.90;;;;;;5069822;28;20075;-64
2022/06/20 03:55:17;;;;;;;5.63;2.28;;;11.40;99.90;;;;;;5069520;28;20049;-63
2022/06/20 03:57:57;;;;;;;4.50;1.70;;;11.40;99.90;;;;;;5074231;28;20045;-64
2022/06/20 04:00:35;;;;;;;5.80;1.95;;;11.30;99.90;;;;;;5073304;28;20044;-63
2022/06/20 04:03:14;;;;;;;5.82;1.92;;;11.40;99.90;;;;;;5072541;28;20083;-64
2022/06/20 04:06:03;;;;;;;6.75;2.20;;;11.40;99.90;;;;;;5073380;28;20037;-64
2022/06/20 04:11:39;;;;;;;6.63;2.28;;;11.40;99.90;;;;;;5076672;28;20438;-63
2022/06/20 04:14:16;;;;;;;2.95;1.73;;;11.40;99.90;;;;;;5079549;28;20497;-64
2022/06/20 04:16:52;;;;;;;2.28;1.70;;;11.40;99.90;;;;;;5073758;28;20090;-63
2022/06/20 04:19:29;;;;;;;4.93;1.85;;;11.40;99.90;;;;;;5077071;28;20119;-63
2022/06/20 04:22:17;;;;;;;6.20;2.45;;;11.40;99.90;;;;;;5077337;28;20087;-64
2022/06/20 04:24:57;;;;;;;5.20;2.63;;;11.50;99.90;;;;;;5079578;28;20667;-64
2022/06/20 04:27:46;;;;;;;3.45;2.10;;;11.50;99.90;;;;;;5072683;28;20102;-63
2022/06/20 04:30:29;;;;;;;9.50;2.72;;;11.60;99.90;;;;;;5078171;28;20576;-64
2022/06/20 04:33:01;;;;;;;5.05;2.42;;;11.60;99.90;;;;;;5075939;28;20049;-64
2022/06/20 04:35:33;;;;;;;5.53;2.28;;;11.70;99.90;;;;;;5074059;28;20136;-64
2022/06/20 04:38:01;;;;;;;;;;;11.80;99.90;;;;;;5078149;28;20043;-64
2022/06/20 04:40:34;;;;;;;5.45;2.83;;;11.80;99.90;;;;;;5074739;28;20762;-63
2022/06/20 04:43:07;;;;;;;5.80;2.63;;;11.80;99.90;;;;;;5074346;28;20040;-63
2022/06/20 04:45:38;;;;;;;6.25;2.50;;;11.90;99.90;;;;;;5073129;28;20054;-64
2022/06/20 04:48:13;;;;;;;5.20;2.65;;;11.90;99.90;;;;;;5071626;28;20036;-64
2022/06/20 04:50:44;;;;;;;7.10;2.72;;;11.90;99.90;;;;;;5070515;28;20113;-64
2022/06/20 04:53:13;;;;;;;5.72;2.38;;;11.90;99.90;;;;;;5069297;28;20063;-64
2022/06/20 04:55:43;;;;;;;14.43;2.92;;;12.00;99.90;;;;;;5077949;28;20064;-64
2022/06/20 04:58:14;;;;;;;6.28;2.53;;;12.00;99.90;;;;;;5078007;28;20045;-63
2022/06/20 05:00:43;;;;;;;8.35;3.22;;;12.00;99.90;;;;;;5072931;28;20534;-64
2022/06/20 05:03:18;;;;;;;6.25;2.20;;;12.10;99.90;;;;;;5081271;28;20051;-63
2022/06/20 05:05:47;;;;;;;6.30;2.78;;;12.10;99.90;;;;;;5076418;28;20543;-64
2022/06/20 05:08:16;;;;;;;6.65;2.63;;;12.20;99.90;;;;;;5073631;28;20072;-63
2022/06/20 05:10:51;;;;;;;5.82;2.55;;;12.30;99.90;;;;;;5074444;28;20380;-64
2022/06/20 05:13:22;;;;;;;24.92;3.30;;;12.30;99.90;;;;;;5072655;28;20678;-64
2022/06/20 05:15:49;;;;;;;8.23;3.72;;;12.40;99.90;;;;;;5073329;28;20044;-64
2022/06/20 05:18:21;;;;;;;8.27;2.88;;;12.50;99.90;;;;;;5073515;28;20395;-64
2022/06/20 05:20:47;;;;;;;6.82;3.42;;;12.60;99.90;;;;;;5069637;28;20051;-63
2022/06/20 05:23:27;;;;;;;9.80;3.10;;;12.70;99.90;;;;;;5078142;28;20033;-64
2022/06/20 05:25:55;;;;;;;7.85;3.60;;;12.70;99.90;;;;;;5078219;28;20055;-64
2022/06/20 05:28:24;;;;;;;5.78;3.13;;;12.80;99.90;;;;;;5071906;28;20040;-63
2022/06/20 05:30:50;;;;;;;7.47;3.40;;;12.90;99.90;;;;;;5075150;28;20098;-63
2022/06/20 05:33:41;;;;;;;9.63;3.40;;;13.00;99.90;;;;;;5071432;28;20495;-64
2022/06/20 05:36:39;;;;;;;9.23;3.40;;;13.10;99.90;;;;;;5073327;28;20047;-64
2022/06/20 05:39:16;;;;;;;7.70;3.45;;;13.20;99.90;;;;;;5072238;28;20063;-64
2022/06/20 05:41:42;;;;;;;14.77;4.20;;;13.30;99.90;;;;;;5074152;28;20040;-64
2022/06/20 05:44:12;;;;;;;12.05;3.67;;;13.30;99.90;;;;;;5069227;28;20166;-64
2022/06/20 05:46:42;;;;;;;11.57;3.00;;;13.40;99.90;;;;;;5075219;28;20051;-64
2022/06/20 05:49:14;;;;;;;10.20;3.20;;;13.50;99.90;;;;;;5076935;28;20044;-64
2022/06/20 05:51:42;;;;;;;13.73;3.75;;;13.50;99.90;;;;;;5077227;28;20044;-64
2022/06/20 05:54:22;;;;;;;7.45;2.60;;;13.60;99.90;;;;;;5073415;28;20807;-64
2022/06/20 05:56:51;;;;;;;10.68;3.60;;;13.60;99.90;;;;;;5075758;28;20048;-64
2022/06/20 05:59:26;;;;;;;11.55;3.08;;;13.70;99.90;;;;;;5078958;28;20089;-64
2022/06/20 06:02:00;;;;;;;10.27;3.78;;;13.70;99.90;;;;;;5076965;28;20129;-64
2022/06/20 06:04:38;;;;;;;9.95;3.35;;;13.80;99.90;;;;;;5078966;28;20053;-64
2022/06/20 06:07:11;;;;;;;10.43;3.65;;;13.80;99.90;;;;;;5068597;28;20043;-64
2022/06/20 06:09:37;;;;;;;11.73;3.53;;;13.80;99.90;;;;;;5075454;28;20040;-64
2022/06/20 06:12:08;;;;;;;14.60;3.60;;;13.80;99.90;;;;;;5076220;28;20046;-64
2022/06/20 06:14:46;;;;;;;11.35;2.80;;;13.80;99.90;;;;;;5077029;28;20128;-64
2022/06/20 06:17:29;;;;;;;6.28;2.97;;;13.80;99.90;;;;;;5078046;28;20089;-64
2022/06/20 06:20:02;;;;;;;9.55;2.72;;;13.80;99.90;;;;;;5073545;28;20100;-65
2022/06/20 06:22:38;;;;;;;5.80;2.65;;;13.90;99.90;;;;;;5072292;28;20032;-63
2022/06/20 06:25:32;;;;;;;8.98;2.83;;;13.90;99.90;;;;;;5073958;28;20075;-64
2022/06/20 06:28:17;;;;;;;7.60;2.92;;;14.10;99.90;;;;;;5075577;28;20059;-64
2022/06/20 06:30:48;;;;;;;11.25;3.08;;;14.20;99.90;;;;;;5070160;28;20491;-64
2022/06/20 06:33:45;;;;;;;9.23;3.33;;;14.30;99.90;;;;;;5071152;28;20051;-64
2022/06/20 06:36:11;;;;;;;8.45;2.95;;;14.40;99.90;;;;;;5080308;28;20040;-64
2022/06/20 06:39:12;;;;;;;8.90;2.90;;;14.50;99.90;;;;;;5075130;28;20052;-64
2022/06/20 06:41:51;;;;;;;9.27;3.05;;;14.60;99.90;;;;;;5070184;28;20591;-64
2022/06/20 06:44:43;;;;;;;7.47;3.20;;;14.60;99.90;;;;;;5073480;28;20419;-63
2022/06/20 06:47:29;;;;;;;12.07;3.10;;;14.50;99.90;;;;;;5064227;28;20082;-64
2022/06/20 06:49:59;;;;;;;9.30;2.75;;;14.80;99.90;;;;;;5073475;28;20052;-64
2022/06/20 06:52:39;;;;;;;7.75;2.90;;;14.40;99.90;;;;;;5072978;28;20109;-65
2022/06/20 06:55:35;;;;;;;10.95;3.22;;;14.50;99.90;;;;;;5068568;28;20119;-64
2022/06/20 06:58:29;;;;;;;10.40;2.92;;;14.60;99.90;;;;;;5071001;28;20048;-64
2022/06/20 07:01:20;;;;;;;9.60;2.30;;;14.70;99.90;;;;;;5070570;28;20107;-64
2022/06/20 07:03:56;;;;;;;10.80;2.90;;;14.80;99.90;;;;;;5072768;28;20443;-64
2022/06/20 07:06:25;;;;;;;6.63;1.83;;;14.70;99.90;;;;;;5075775;28;20487;-64
2022/06/20 07:09:13;;;;;;;7.13;2.58;;;14.70;99.90;;;;;;5069627;28;20040;-63
2022/06/20 07:11:45;;;;;;;11.02;2.03;;;14.70;99.90;;;;;;5071089;28;20049;-64
2022/06/20 07:14:17;;;;;;;5.50;2.13;;;14.70;99.90;;;;;;5075455;28;20128;-64
2022/06/20 07:17:09;;;;;;;7.03;2.10;;;14.80;99.90;;;;;;5070768;28;20083;-64
2022/06/20 07:19:39;;;;;;;8.55;1.67;;;14.80;99.90;;;;;;5075703;28;20080;-64
2022/06/20 07:22:05;;;;;;;3.88;1.60;;;14.90;99.90;;;;;;5072249;28;20045;-64
2022/06/20 07:24:33;;;;;;;6.45;1.95;;;14.80;99.90;;;;;;5074942;28;20052;-64
2022/06/20 07:27:11;;;;;;;6.80;2.17;;;14.90;99.90;;;;;;5070691;28;20107;-64
2022/06/20 07:29:51;;;;;;;4.90;2.03;;;14.90;99.90;;;;;;5069655;28;20087;-64
2022/06/20 07:32:39;;;;;;;4.57;1.48;;;15.00;99.90;;;;;;5075714;28;20032;-64
2022/06/20 07:35:26;;;;;;;7.28;1.80;;;15.20;99.90;;;;;;5071052;28;20143;-68
2022/06/20 07:38:13;;;;;;;5.93;1.75;;;15.30;99.90;;;;;;5075018;28;20113;-65
2022/06/20 07:40:45;;;;;;;6.85;1.85;;;15.30;99.90;;;;;;5083397;28;20059;-72
2022/06/20 07:43:23;;;;;;;6.00;1.80;;;15.40;99.90;;;;;;5064612;28;20178;-63
2022/06/20 07:45:51;;;;;;;8.85;1.90;;;15.50;99.90;;;;;;5067246;28;20052;-66
2022/06/20 07:48:31;;;;;;;5.50;1.40;;;15.60;99.90;;;;;;5089439;28;20046;-66
2022/06/20 07:51:15;;;;;;;4.18;1.40;;;15.80;99.90;;;;;;5095060;28;20057;-66
2022/06/20 07:54:02;;;;;;;2.20;1.00;;;15.90;99.90;;;;;;5079271;28;20058;-65
2022/06/20 07:56:37;;;;;;;2.90;1.30;;;16.00;99.90;;;;;;5068232;28;20088;-66
2022/06/20 07:59:32;;;;;;;6.03;1.73;;;16.00;99.90;;;;;;5068517;28;20566;-66
2022/06/20 08:02:20;;;;;;;5.15;1.55;;;16.00;99.90;;;;;;5075477;28;20052;-66
2022/06/20 08:04:49;;;;;;;8.70;1.85;;;16.00;99.90;;;;;;5081458;28;20087;-65
2022/06/20 08:07:34;;;;;;;5.53;2.05;;;16.10;99.90;;;;;;5075526;28;20083;-65
2022/06/20 08:10:07;;;;;;;4.07;1.60;;;16.20;99.90;;;;;;5082121;28;20445;-65
2022/06/20 08:12:36;;;;;;;7.43;1.58;;;16.30;99.90;;;;;;5082760;28;20056;-65
2022/06/20 08:15:20;;;;;;;6.07;1.27;;;16.20;99.90;;;;;;5071845;28;20117;-65
2022/06/20 08:17:46;;;;;;;4.18;1.63;;;16.20;99.90;;;;;;5077073;28;20051;-66
2022/06/20 08:20:12;;;;;;;5.90;1.85;;;16.30;99.90;;;;;;5073986;28;20040;-66
2022/06/20 08:23:02;;;;;;;2.13;1.33;;;16.40;99.90;;;;;;5071673;28;20076;-65
2022/06/20 08:25:36;;;;;;;2.42;1.92;;;16.40;99.90;;;;;;5076322;28;20087;-65
2022/06/20 08:28:08;;;;;;;11.00;1.98;;;16.30;99.90;;;;;;5068306;28;20048;-66
2022/06/20 08:30:48;;;;;;;5.97;2.10;;;16.20;99.90;;;;;;5068627;28;20556;-67
2022/06/20 08:33:23;;;;;;;4.35;2.00;;;15.90;99.90;;;;;;5071921;28;20299;-67
2022/06/20 08:35:51;;;;;;;4.90;1.67;;;15.90;99.90;;;;;;5076698;28;20052;-67
2022/06/20 08:38:17;;;;;;;5.63;1.60;;;15.90;99.90;;;;;;5088929;28;20040;-68
2022/06/20 08:41:09;;;;;;;4.57;1.38;;;16.00;99.90;;;;;;5082292;28;20048;-68
2022/06/20 08:43:47;;;;;;;3.50;1.40;;;15.90;99.90;;;;;;5082404;28;20048;-67
2022/06/20 08:46:50;;;;;;;4.00;1.40;;;15.70;99.90;;;;;;5078933;28;20049;-67
2022/06/20 08:49:34;;;;;;;;;;;15.70;99.90;;;;;;5068034;28;20052;-67
2022/06/20 08:52:19;;;;;;;3.20;1.23;;;15.90;99.90;;;;;;5078556;28;19926;-67
2022/06/20 08:55:22;;;;;;;3.22;1.50;;;16.00;99.90;;;;;;5080305;28;20936;-67
2022/06/20 08:58:26;;;;;;;3.38;1.20;;;16.10;99.90;;;;;;5084878;28;20495;-67
2022/06/20 09:01:04;;;;;;;3.67;1.10;;;16.20;99.90;;;;;;5071031;28;20072;-68
2022/06/20 09:04:06;;;;;;;4.47;1.73;;;16.20;99.90;;;;;;5081790;28;20063;-68
2022/06/20 09:06:51;;;;;;;2.53;1.00;;;16.20;99.90;;;;;;5077343;28;20453;-67
2022/06/20 09:09:53;;;;;;;4.63;1.17;;;16.30;99.90;;;;;;5073884;28;20045;-67
2022/06/20 09:12:38;;;;;;;2.63;1.15;;;16.50;99.90;;;;;;5076948;28;20048;-67
2022/06/20 09:15:51;;;;;;;4.03;1.35;;;16.70;99.90;;;;;;5076505;28;20055;-67
2022/06/20 09:18:31;;;;;;;5.40;1.42;;;16.70;99.90;;;;;;5041250;28;20055;-67
2022/06/20 09:21:23;;;;;;;6.38;1.35;;;16.90;99.90;;;;;;5085782;28;20060;-68
2022/06/20 09:24:17;;;;;;;6.47;2.03;;;17.10;99.90;;;;;;5080124;28;20075;-67
2022/06/20 09:26:43;;;;;;;4.20;1.48;;;17.00;99.90;;;;;;5078001;28;20043;-66
2022/06/20 09:29:38;;;;;;;4.07;1.77;;;16.80;99.90;;;;;;5069929;28;20100;-67
2022/06/20 09:32:11;;;;;;;3.28;1.33;;;16.60;99.90;;;;;;5062512;28;20060;-67
2022/06/20 09:34:46;;;;;;;2.00;0.98;;;16.70;99.90;;;;;;5087225;28;20502;-67
2022/06/20 09:37:45;;;;;;;5.00;1.33;;;16.80;99.90;;;;;;5086376;28;20047;-67
2022/06/20 09:40:41;;;;;;;1.30;0.95;;;17.00;99.90;;;;;;5087451;28;20493;-67
2022/06/20 09:43:17;;;;;;;3.40;1.45;;;17.00;99.90;;;;;;5087166;28;20461;-67
2022/06/20 09:46:05;;;;;;;2.67;1.38;;;17.00;99.90;;;;;;5086149;28;20054;-67
2022/06/20 09:48:45;;;;;;;3.25;1.00;;;17.00;99.90;;;;;;5087798;28;20093;-67
2022/06/20 09:51:13;;;;;;;2.35;1.00;;;17.00;99.90;;;;;;5086893;28;20059;-67
2022/06/20 09:54:11;;;;;;;4.38;1.50;;;17.10;99.90;;;;;;5087725;28;20040;-67
2022/06/20 09:57:10;;;;;;;7.07;1.42;;;17.00;99.90;;;;;;5063050;28;20056;-67
2022/06/20 10:00:07;;;;;;;3.35;1.35;;;17.00;99.90;;;;;;5086293;28;20110;-67
2022/06/20 10:02:54;;;;;;;3.63;1.38;;;17.00;99.90;;;;;;5086217;28;20498;-67
2022/06/20 10:05:26;;;;;;;4.28;1.48;;;17.10;99.90;;;;;;5087286;28;20050;-66
2022/06/20 10:07:56;;;;;;;4.20;1.27;;;17.20;99.90;;;;;;5087178;28;20513;-67
2022/06/20 10:10:24;;;;;;;6.13;1.70;;;17.30;99.90;;;;;;5086497;28;20074;-67
2022/06/20 10:13:08;;;;;;;5.90;1.48;;;17.40;99.90;;;;;;5086573;28;20487;-67
2022/06/20 10:15:59;;;;;;;6.63;1.00;;;17.40;99.90;;;;;;5085750;28;20059;-67
2022/06/20 10:18:53;;;;;;;3.85;1.38;;;17.50;99.90;;;;;;5085041;28;20189;-67
2022/06/20 10:21:39;;;;;;;3.08;1.60;;;17.60;99.90;;;;;;5087175;28;20096;-67
2022/06/20 10:24:22;;;;;;;2.35;1.27;;;17.70;99.90;;;;;;5085751;28;20063;-66
2022/06/20 10:27:16;;;;;;;7.60;1.65;;;17.70;99.90;;;;;;5073842;28;20036;-67
2022/06/20 10:29:50;;;;;;;3.38;1.58;;;17.70;99.90;;;;;;5071869;28;20475;-67
2022/06/20 10:32:30;;;;;;;4.97;1.77;;;17.70;99.90;;;;;;5075425;28;20040;-67
2022/06/20 10:35:15;;;;;;;5.97;1.90;;;17.70;99.90;;;;;;5072652;28;20059;-68
2022/06/20 10:38:03;;;;;;;4.90;1.58;;;17.60;99.90;;;;;;5074202;28;20056;-67
2022/06/20 10:40:50;;;;;;;5.38;1.88;;;17.60;99.90;;;;;;5073782;28;20093;-67
2022/06/20 10:43:49;;;;;;;5.90;1.88;;;17.60;99.90;;;;;;5070903;28;20756;-67
2022/06/20 10:46:36;;;;;;;5.65;2.08;;;17.70;99.90;;;;;;5074153;28;20051;-67
2022/06/20 10:49:08;;;;;;;8.38;1.60;;;17.80;99.90;;;;;;5070255;28;20052;-67
2022/06/20 10:52:08;;;;;;;5.93;2.10;;;17.80;99.90;;;;;;5072929;28;20048;-67
2022/06/20 10:54:51;;;;;;;5.65;2.00;;;17.70;99.90;;;;;;5076427;28;20056;-67
2022/06/20 10:57:25;;;;;;;8.00;1.55;;;17.90;99.90;;;;;;5072819;28;20059;-67
2022/06/20 11:00:06;;;;;;;5.93;1.65;;;18.10;99.90;;;;;;5075273;28;20048;-67
2022/06/20 11:02:49;;;;;;;7.57;1.67;;;18.10;99.90;;;;;;5074637;28;20094;-68
2022/06/20 11:05:41;;;;;;;3.03;1.40;;;18.10;99.90;;;;;;5075468;28;20048;-67
2022/06/20 11:08:06;;;;;;;3.58;1.55;;;18.20;99.90;;;;;;5081582;28;20608;-67
2022/06/20 11:11:22;;;;;;;3.92;1.90;;;18.20;99.90;;;;;;5077182;28;20127;-67
2022/06/20 11:14:32;;;;;;;4.70;1.77;;;18.20;99.90;;;;;;5079945;28;20087;-68
2022/06/20 11:17:40;;;;;;;6.18;1.55;;;18.20;99.90;;;;;;5074417;28;20118;-68
2022/06/20 11:20:21;;;;;;;4.28;1.27;;;18.30;99.90;;;;;;5069749;28;20052;-68
2022/06/20 11:23:01;;;;;;;9.35;2.20;;;18.30;99.90;;;;;;5065335;28;20052;-68
2022/06/20 11:25:47;;;;;;;4.25;1.25;;;18.40;99.90;;;;;;5078743;28;20044;-68
2022/06/20 11:28:39;;;;;;;3.53;1.77;;;18.60;99.90;;;;;;5076116;28;20036;-68
2022/06/20 11:31:05;;;;;;;3.25;1.58;;;18.50;99.90;;;;;;5072486;28;20656;-68
2022/06/20 11:34:00;;;;;;;4.28;1.70;;;18.40;99.90;;;;;;5072788;28;20059;-68
2022/06/20 11:36:50;;;;;;;2.50;1.35;;;18.10;99.90;;;;;;5069882;28;20063;-69
2022/06/20 11:39:40;;;;;;;1.67;1.40;;;18.10;99.90;;;;;;5081343;28;20044;-69
2022/06/20 11:42:35;;;;;;;6.80;1.95;;;18.20;99.90;;;;;;5079917;28;20050;-69
2022/06/20 11:45:25;;;;;;;5.85;1.50;;;18.30;99.90;;;;;;5048508;28;20159;-67
2022/06/20 11:47:54;;;;;;;3.58;1.35;;;18.30;99.90;;;;;;5080481;28;20044;-70
2022/06/20 11:50:41;;;;;;;5.28;1.52;;;18.40;99.90;;;;;;5075669;28;20582;-68
2022/06/20 11:53:10;;;;;;;4.88;1.60;;;18.60;99.90;;;;;;5081083;28;20048;-70
2022/06/20 11:55:52;;;;;;;3.72;1.88;;;18.60;99.90;;;;;;5069667;28;20059;-68
2022/06/20 11:58:33;;;;;;;;;;;18.60;99.90;;;;;;5072056;28;20441;-68
2022/06/20 12:01:13;;;;;;;1.77;1.27;;;18.60;99.90;;;;;;5075198;28;19928;-68
2022/06/20 12:04:00;;;;;;;3.75;1.08;;;18.50;99.90;;;;;;5072989;28;20053;-69
2022/06/20 12:06:36;;;;;;;4.18;1.30;;;18.40;99.90;;;;;;5073457;28;20052;-69
2022/06/20 12:09:35;;;;;;;3.08;1.50;;;18.30;99.90;;;;;;5070423;28;20446;-68
2022/06/20 12:12:22;;;;;;;4.15;1.35;;;18.10;99.90;;;;;;5072651;28;20540;-68
2022/06/20 12:15:17;;;;;;;5.80;1.45;;;18.20;99.90;;;;;;5075295;28;20052;-68
2022/06/20 12:17:56;;;;;;;1.58;0.98;;;18.20;99.90;;;;;;5077026;28;20048;-69
2022/06/20 12:23:45;;;;;;;2.47;1.10;;;18.50;99.90;;;;;;5076343;28;20044;-68
2022/06/20 12:26:21;;;;;;;3.75;1.20;;;18.60;99.90;;;;;;5068291;28;20053;-68
2022/06/20 12:28:50;;;;;;;5.78;1.45;;;18.50;99.90;;;;;;5072599;28;20049;-68
2022/06/20 12:31:50;;;;;;;4.82;1.15;;;18.60;99.90;;;;;;5085641;28;20179;-68
2022/06/20 12:34:34;;;;;;;2.58;1.10;;;18.80;99.90;;;;;;5066666;28;20404;-68
2022/06/20 12:37:08;;;;;;;3.00;1.50;;;19.00;99.90;;;;;;5084324;28;20052;-68
2022/06/20 12:40:05;;;;;;;4.30;1.42;;;18.60;99.90;;;;;;5076672;28;20087;-69
2022/06/20 12:42:46;;;;;;;4.35;1.40;;;18.40;99.90;;;;;;5044570;28;20063;-68
2022/06/20 12:45:39;;;;;;;1.95;1.20;;;18.20;99.90;;;;;;5081906;28;20604;-68
2022/06/20 12:48:22;;;;;;;3.95;1.25;;;18.10;99.90;;;;;;5075580;28;20052;-68
2022/06/20 12:50:58;;;;;;;2.72;1.48;;;18.10;99.90;;;;;;5072762;28;20047;-68
2022/06/20 12:53:51;;;;;;;6.18;1.73;;;18.30;99.90;;;;;;5075539;28;20131;-68
2022/06/20 12:56:50;;;;;;;4.72;1.77;;;18.70;99.90;;;;;;5076314;28;20049;-68
2022/06/20 12:59:18;;;;;;;3.97;1.58;;;19.00;99.90;;;;;;5076753;28;20053;-68
2022/06/20 13:01:58;;;;;;;4.05;1.55;;;19.10;99.90;;;;;;5073457;28;20131;-68
2022/06/20 13:04:23;;;;;;;2.65;1.08;;;19.20;99.90;;;;;;5079025;28;20047;-68
2022/06/20 13:07:09;;;;;;;4.18;1.23;;;19.20;99.90;;;;;;5073052;28;20051;-68
2022/06/20 13:09:46;;;;;;;2.00;1.10;;;19.10;99.90;;;;;;5074767;28;20052;-68
2022/06/20 13:12:38;;;;;;;3.00;1.25;;;19.00;99.90;;;;;;5074611;28;20067;-68
2022/06/20 13:15:34;;;;;;;2.17;1.35;;;19.00;99.90;;;;;;5075353;28;20115;-68
2022/06/20 13:18:05;;;;;;;6.00;1.33;;;19.00;99.90;;;;;;5072397;28;20056;-68
2022/06/20 13:21:03;;;;;;;3.80;1.80;;;19.10;99.90;;;;;;5080116;28;20051;-68
2022/06/20 13:23:44;;;;;;;7.32;1.63;;;19.20;99.90;;;;;;5080861;28;20064;-69
2022/06/20 13:26:31;;;;;;;6.13;2.00;;;19.30;99.90;;;;;;5077605;28;20046;-69
2022/06/20 13:29:39;;;;;;;3.88;1.77;;;19.30;99.90;;;;;;5072848;28;20503;-67
2022/06/20 13:32:30;;;;;;;4.07;1.52;;;19.30;99.90;;;;;;5014492;28;20057;-67
2022/06/20 13:35:32;;;;;;;1.77;1.63;;;19.20;99.90;;;;;;5088100;28;20091;-66
2022/06/20 13:38:21;;;;;;;2.80;1.13;;;19.30;99.90;;;;;;5069066;28;20491;-68
2022/06/20 13:41:01;;;;;;;5.15;1.10;;;19.40;99.90;;;;;;5068135;28;20149;-66
2022/06/20 13:43:46;;;;;;;3.22;1.20;;;19.30;99.90;;;;;;5078809;28;20453;-67
2022/06/20 13:46:23;;;;;;;5.10;1.63;;;19.50;99.90;;;;;;5077202;28;20048;-66
2022/06/20 13:49:11;;;;;;;2.90;1.20;;;19.50;99.90;;;;;;5082836;28;20080;-67
2022/06/20 13:51:47;;;;;;;7.85;1.30;;;19.50;99.90;;;;;;5083414;28;20055;-67
2022/06/20 13:54:54;;;;;;;2.33;1.08;;;19.70;99.90;;;;;;5077082;28;20048;-67
2022/06/20 13:57:35;;;;;;;2.17;1.00;;;19.80;99.90;;;;;;5006348;28;20655;-67